sensor_id;sensor_type;location;lat;lon;timestamp;P1;durP1;ratioP1;P2;durP2;ratioP2
31347;SDS011;21711;49.708;18.568;2022-08-20T00:01:14;19.00;;;5.65;;
31347;SDS011;21711;49.708;18.568;2022-08-20T00:03:42;11.15;;;5.57;;
31347;SDS011;21711;49.708;18.568;2022-08-20T00:06:19;14.35;;;5.25;;
31347;SDS011;21711;49.708;18.568;2022-08-20T00:08:49;11.40;;;4.18;;
31347;SDS011;21711;49.708;18.568;2022-08-20T00:11:21;11.70;;;4.93;;
31347;SDS011;21711;49.708;18.568;2022-08-20T00:13:51;20.30;;;5.28;;
31347;SDS011;21711;49.708;18.568;2022-08-20T00:16:24;12.00;;;5.07;;
31347;SDS011;21711;49.708;18.568;2022-08-20T00:18:58;12.15;;;4.13;;
31347;SDS011;21711;49.708;18.568;2022-08-20T00:21:27;13.15;;;4.75;;
31347;SDS011;21711;49.708;18.568;2022-08-20T00:23:56;15.27;;;4.37;;
31347;SDS011;21711;49.708;18.568;2022-08-20T00:26:25;10.30;;;4.60;;
31347;SDS011;21711;49.708;18.568;2022-08-20T00:28:52;18.45;;;5.25;;
31347;SDS011;21711;49.708;18.568;2022-08-20T00:31:21;9.80;;;5.55;;
31347;SDS011;21711;49.708;18.568;2022-08-20T00:33:50;13.10;;;5.18;;
31347;SDS011;21711;49.708;18.568;2022-08-20T00:36:18;14.35;;;3.85;;
31347;SDS011;21711;49.708;18.568;2022-08-20T00:38:58;8.50;;;4.40;;
31347;SDS011;21711;49.708;18.568;2022-08-20T00:41:26;21.55;;;4.95;;
31347;SDS011;21711;49.708;18.568;2022-08-20T00:46:47;16.45;;;5.25;;
31347;SDS011;21711;49.708;18.568;2022-08-20T00:49:19;14.60;;;6.10;;
31347;SDS011;21711;49.708;18.568;2022-08-20T00:52:03;13.40;;;5.07;;
31347;SDS011;21711;49.708;18.568;2022-08-20T00:54:47;12.18;;;5.85;;
31347;SDS011;21711;49.708;18.568;2022-08-20T00:57:25;13.15;;;5.65;;
31347;SDS011;21711;49.708;18.568;2022-08-20T01:00:31;17.10;;;6.00;;
31347;SDS011;21711;49.708;18.568;2022-08-20T01:03:04;14.80;;;6.05;;
31347;SDS011;21711;49.708;18.568;2022-08-20T01:05:36;16.75;;;5.90;;
31347;SDS011;21711;49.708;18.568;2022-08-20T01:08:06;11.23;;;5.47;;
31347;SDS011;21711;49.708;18.568;2022-08-20T01:10:35;14.07;;;5.72;;
31347;SDS011;21711;49.708;18.568;2022-08-20T01:13:10;14.75;;;6.57;;
31347;SDS011;21711;49.708;18.568;2022-08-20T01:15:42;17.67;;;6.88;;
31347;SDS011;21711;49.708;18.568;2022-08-20T01:18:13;13.27;;;6.43;;
31347;SDS011;21711;49.708;18.568;2022-08-20T01:20:48;17.10;;;6.53;;
31347;SDS011;21711;49.708;18.568;2022-08-20T01:26:16;14.50;;;5.95;;
31347;SDS011;21711;49.708;18.568;2022-08-20T01:28:56;14.63;;;5.03;;
31347;SDS011;21711;49.708;18.568;2022-08-20T01:31:34;16.98;;;5.47;;
31347;SDS011;21711;49.708;18.568;2022-08-20T01:34:05;11.98;;;5.18;;
31347;SDS011;21711;49.708;18.568;2022-08-20T01:36:39;15.13;;;5.70;;
31347;SDS011;21711;49.708;18.568;2022-08-20T01:39:21;17.45;;;5.78;;
31347;SDS011;21711;49.708;18.568;2022-08-20T01:41:56;9.50;;;5.20;;
31347;SDS011;21711;49.708;18.568;2022-08-20T01:44:56;15.65;;;5.63;;
31347;SDS011;21711;49.708;18.568;2022-08-20T01:47:27;18.00;;;7.25;;
31347;SDS011;21711;49.708;18.568;2022-08-20T01:50:13;13.82;;;6.47;;
31347;SDS011;21711;49.708;18.568;2022-08-20T01:52:58;18.35;;;5.70;;
31347;SDS011;21711;49.708;18.568;2022-08-20T01:56:02;13.93;;;5.95;;
31347;SDS011;21711;49.708;18.568;2022-08-20T01:58:34;12.52;;;5.85;;
31347;SDS011;21711;49.708;18.568;2022-08-20T02:01:05;12.07;;;6.65;;
31347;SDS011;21711;49.708;18.568;2022-08-20T02:03:32;14.20;;;6.10;;
31347;SDS011;21711;49.708;18.568;2022-08-20T02:06:05;19.38;;;6.55;;
31347;SDS011;21711;49.708;18.568;2022-08-20T02:08:32;25.88;;;9.32;;
31347;SDS011;21711;49.708;18.568;2022-08-20T02:10:59;15.70;;;7.15;;
31347;SDS011;21711;49.708;18.568;2022-08-20T02:13:27;21.58;;;7.40;;
31347;SDS011;21711;49.708;18.568;2022-08-20T02:15:54;16.70;;;7.65;;
31347;SDS011;21711;49.708;18.568;2022-08-20T02:18:22;16.08;;;6.60;;
31347;SDS011;21711;49.708;18.568;2022-08-20T02:20:50;19.15;;;8.02;;
31347;SDS011;21711;49.708;18.568;2022-08-20T02:23:18;19.00;;;8.27;;
31347;SDS011;21711;49.708;18.568;2022-08-20T02:25:46;15.15;;;7.22;;
31347;SDS011;21711;49.708;18.568;2022-08-20T02:28:16;17.23;;;7.72;;
31347;SDS011;21711;49.708;18.568;2022-08-20T02:30:47;22.83;;;8.05;;
31347;SDS011;21711;49.708;18.568;2022-08-20T02:33:20;17.33;;;7.22;;
31347;SDS011;21711;49.708;18.568;2022-08-20T02:35:50;22.42;;;8.52;;
31347;SDS011;21711;49.708;18.568;2022-08-20T02:38:22;25.77;;;9.27;;
31347;SDS011;21711;49.708;18.568;2022-08-20T02:40:50;17.75;;;8.02;;
31347;SDS011;21711;49.708;18.568;2022-08-20T02:43:18;13.88;;;7.80;;
31347;SDS011;21711;49.708;18.568;2022-08-20T02:45:47;14.75;;;8.38;;
31347;SDS011;21711;49.708;18.568;2022-08-20T02:48:15;33.13;;;10.57;;
31347;SDS011;21711;49.708;18.568;2022-08-20T02:50:47;17.05;;;9.07;;
31347;SDS011;21711;49.708;18.568;2022-08-20T02:53:24;26.00;;;9.25;;
31347;SDS011;21711;49.708;18.568;2022-08-20T02:55:54;26.98;;;9.68;;
31347;SDS011;21711;49.708;18.568;2022-08-20T02:58:22;30.85;;;10.75;;
31347;SDS011;21711;49.708;18.568;2022-08-20T03:00:49;26.60;;;12.07;;
31347;SDS011;21711;49.708;18.568;2022-08-20T03:03:17;24.73;;;10.45;;
31347;SDS011;21711;49.708;18.568;2022-08-20T03:05:49;28.15;;;10.80;;
31347;SDS011;21711;49.708;18.568;2022-08-20T03:08:23;26.95;;;10.15;;
31347;SDS011;21711;49.708;18.568;2022-08-20T03:10:52;22.02;;;10.23;;
31347;SDS011;21711;49.708;18.568;2022-08-20T03:13:19;24.88;;;9.70;;
31347;SDS011;21711;49.708;18.568;2022-08-20T03:15:50;23.17;;;10.60;;
31347;SDS011;21711;49.708;18.568;2022-08-20T03:18:27;19.58;;;11.27;;
31347;SDS011;21711;49.708;18.568;2022-08-20T03:21:02;22.20;;;9.05;;
31347;SDS011;21711;49.708;18.568;2022-08-20T03:23:31;22.10;;;9.80;;
31347;SDS011;21711;49.708;18.568;2022-08-20T03:26:08;20.37;;;8.97;;
31347;SDS011;21711;49.708;18.568;2022-08-20T03:28:38;22.52;;;10.55;;
31347;SDS011;21711;49.708;18.568;2022-08-20T03:31:06;24.13;;;10.35;;
31347;SDS011;21711;49.708;18.568;2022-08-20T03:33:34;21.92;;;10.23;;
31347;SDS011;21711;49.708;18.568;2022-08-20T03:36:17;21.73;;;10.57;;
31347;SDS011;21711;49.708;18.568;2022-08-20T03:38:57;28.83;;;9.43;;
31347;SDS011;21711;49.708;18.568;2022-08-20T03:41:29;21.92;;;9.70;;
31347;SDS011;21711;49.708;18.568;2022-08-20T03:43:57;22.23;;;9.48;;
31347;SDS011;21711;49.708;18.568;2022-08-20T03:46:24;21.80;;;8.93;;
31347;SDS011;21711;49.708;18.568;2022-08-20T03:48:53;24.40;;;10.15;;
31347;SDS011;21711;49.708;18.568;2022-08-20T03:51:29;17.40;;;8.45;;
31347;SDS011;21711;49.708;18.568;2022-08-20T03:54:18;15.00;;;8.07;;
31347;SDS011;21711;49.708;18.568;2022-08-20T03:56:46;22.25;;;7.78;;
31347;SDS011;21711;49.708;18.568;2022-08-20T03:59:13;21.80;;;10.10;;
31347;SDS011;21711;49.708;18.568;2022-08-20T04:01:40;23.33;;;8.77;;
31347;SDS011;21711;49.708;18.568;2022-08-20T04:04:12;17.02;;;9.18;;
31347;SDS011;21711;49.708;18.568;2022-08-20T04:06:40;22.00;;;9.25;;
31347;SDS011;21711;49.708;18.568;2022-08-20T04:09:09;22.15;;;9.32;;
31347;SDS011;21711;49.708;18.568;2022-08-20T04:11:38;21.55;;;9.80;;
31347;SDS011;21711;49.708;18.568;2022-08-20T04:14:07;23.73;;;9.52;;
31347;SDS011;21711;49.708;18.568;2022-08-20T04:16:37;17.73;;;8.88;;
31347;SDS011;21711;49.708;18.568;2022-08-20T04:19:06;23.90;;;9.13;;
31347;SDS011;21711;49.708;18.568;2022-08-20T04:21:34;21.38;;;10.20;;
31347;SDS011;21711;49.708;18.568;2022-08-20T04:24:02;25.02;;;11.40;;
31347;SDS011;21711;49.708;18.568;2022-08-20T04:26:31;23.45;;;10.80;;
31347;SDS011;21711;49.708;18.568;2022-08-20T04:29:02;30.02;;;12.27;;
31347;SDS011;21711;49.708;18.568;2022-08-20T04:31:30;28.52;;;11.13;;
31347;SDS011;21711;49.708;18.568;2022-08-20T04:34:01;25.52;;;10.40;;
31347;SDS011;21711;49.708;18.568;2022-08-20T04:36:33;26.38;;;10.85;;
31347;SDS011;21711;49.708;18.568;2022-08-20T04:39:00;30.52;;;12.15;;
31347;SDS011;21711;49.708;18.568;2022-08-20T04:41:29;28.05;;;12.02;;
31347;SDS011;21711;49.708;18.568;2022-08-20T04:43:56;25.00;;;10.65;;
31347;SDS011;21711;49.708;18.568;2022-08-20T04:46:24;32.13;;;10.27;;
31347;SDS011;21711;49.708;18.568;2022-08-20T04:48:54;24.10;;;10.10;;
31347;SDS011;21711;49.708;18.568;2022-08-20T04:51:23;22.40;;;8.55;;
31347;SDS011;21711;49.708;18.568;2022-08-20T04:53:52;19.42;;;8.52;;
31347;SDS011;21711;49.708;18.568;2022-08-20T04:56:22;24.65;;;8.40;;
31347;SDS011;21711;49.708;18.568;2022-08-20T04:58:53;25.48;;;7.65;;
31347;SDS011;21711;49.708;18.568;2022-08-20T05:01:24;14.98;;;7.32;;
31347;SDS011;21711;49.708;18.568;2022-08-20T05:03:52;22.58;;;7.13;;
31347;SDS011;21711;49.708;18.568;2022-08-20T05:06:25;14.02;;;6.30;;
31347;SDS011;21711;49.708;18.568;2022-08-20T05:08:58;20.33;;;7.43;;
31347;SDS011;21711;49.708;18.568;2022-08-20T05:11:26;15.95;;;7.05;;
31347;SDS011;21711;49.708;18.568;2022-08-20T05:14:05;16.17;;;6.82;;
31347;SDS011;21711;49.708;18.568;2022-08-20T05:16:38;22.73;;;9.35;;
31347;SDS011;21711;49.708;18.568;2022-08-20T05:19:07;26.15;;;9.70;;
31347;SDS011;21711;49.708;18.568;2022-08-20T05:21:37;16.92;;;9.15;;
31347;SDS011;21711;49.708;18.568;2022-08-20T05:24:06;19.05;;;9.35;;
31347;SDS011;21711;49.708;18.568;2022-08-20T05:26:33;18.25;;;9.73;;
31347;SDS011;21711;49.708;18.568;2022-08-20T05:29:01;15.98;;;7.65;;
31347;SDS011;21711;49.708;18.568;2022-08-20T05:31:31;17.80;;;8.88;;
31347;SDS011;21711;49.708;18.568;2022-08-20T05:34:01;16.63;;;8.37;;
31347;SDS011;21711;49.708;18.568;2022-08-20T05:36:40;16.67;;;9.00;;
31347;SDS011;21711;49.708;18.568;2022-08-20T05:39:15;15.90;;;7.43;;
31347;SDS011;21711;49.708;18.568;2022-08-20T05:41:44;21.98;;;8.55;;
31347;SDS011;21711;49.708;18.568;2022-08-20T05:44:14;15.75;;;7.93;;
31347;SDS011;21711;49.708;18.568;2022-08-20T05:46:44;20.65;;;8.18;;
31347;SDS011;21711;49.708;18.568;2022-08-20T05:49:17;20.02;;;7.80;;
31347;SDS011;21711;49.708;18.568;2022-08-20T05:51:48;19.40;;;7.25;;
31347;SDS011;21711;49.708;18.568;2022-08-20T05:54:16;14.57;;;7.70;;
31347;SDS011;21711;49.708;18.568;2022-08-20T05:56:44;16.02;;;6.72;;
31347;SDS011;21711;49.708;18.568;2022-08-20T05:59:11;19.00;;;7.07;;
31347;SDS011;21711;49.708;18.568;2022-08-20T06:01:40;18.77;;;7.15;;
31347;SDS011;21711;49.708;18.568;2022-08-20T06:04:08;19.02;;;7.90;;
31347;SDS011;21711;49.708;18.568;2022-08-20T06:07:02;16.90;;;6.75;;
31347;SDS011;21711;49.708;18.568;2022-08-20T06:09:32;15.73;;;6.88;;
31347;SDS011;21711;49.708;18.568;2022-08-20T06:12:03;14.43;;;6.50;;
31347;SDS011;21711;49.708;18.568;2022-08-20T06:14:34;15.52;;;6.60;;
31347;SDS011;21711;49.708;18.568;2022-08-20T06:17:06;14.70;;;6.32;;
31347;SDS011;21711;49.708;18.568;2022-08-20T06:19:42;13.97;;;6.10;;
31347;SDS011;21711;49.708;18.568;2022-08-20T06:22:12;16.05;;;5.82;;
31347;SDS011;21711;49.708;18.568;2022-08-20T06:24:48;13.70;;;5.75;;
31347;SDS011;21711;49.708;18.568;2022-08-20T06:27:15;17.88;;;6.00;;
31347;SDS011;21711;49.708;18.568;2022-08-20T06:29:44;12.77;;;5.00;;
31347;SDS011;21711;49.708;18.568;2022-08-20T06:32:11;11.93;;;5.82;;
31347;SDS011;21711;49.708;18.568;2022-08-20T06:34:39;14.73;;;5.03;;
31347;SDS011;21711;49.708;18.568;2022-08-20T06:37:17;15.80;;;5.35;;
31347;SDS011;21711;49.708;18.568;2022-08-20T06:42:38;10.82;;;4.28;;
31347;SDS011;21711;49.708;18.568;2022-08-20T06:45:15;16.08;;;4.70;;
31347;SDS011;21711;49.708;18.568;2022-08-20T06:47:50;17.52;;;4.30;;
31347;SDS011;21711;49.708;18.568;2022-08-20T06:50:20;18.50;;;4.90;;
31347;SDS011;21711;49.708;18.568;2022-08-20T06:53:14;16.80;;;4.57;;
31347;SDS011;21711;49.708;18.568;2022-08-20T06:55:45;14.90;;;4.28;;
31347;SDS011;21711;49.708;18.568;2022-08-20T06:58:17;10.95;;;4.97;;
31347;SDS011;21711;49.708;18.568;2022-08-20T07:01:03;19.30;;;4.93;;
31347;SDS011;21711;49.708;18.568;2022-08-20T07:03:37;16.67;;;5.25;;
31347;SDS011;21711;49.708;18.568;2022-08-20T07:06:21;16.02;;;5.22;;
31347;SDS011;21711;49.708;18.568;2022-08-20T07:08:51;16.70;;;4.53;;
31347;SDS011;21711;49.708;18.568;2022-08-20T07:11:20;17.30;;;4.70;;
31347;SDS011;21711;49.708;18.568;2022-08-20T07:13:54;17.98;;;5.03;;
31347;SDS011;21711;49.708;18.568;2022-08-20T07:16:24;19.98;;;5.68;;
31347;SDS011;21711;49.708;18.568;2022-08-20T07:18:52;13.38;;;5.25;;
31347;SDS011;21711;49.708;18.568;2022-08-20T07:21:20;12.95;;;4.72;;
31347;SDS011;21711;49.708;18.568;2022-08-20T07:23:47;10.27;;;5.07;;
31347;SDS011;21711;49.708;18.568;2022-08-20T07:26:15;16.70;;;6.45;;
31347;SDS011;21711;49.708;18.568;2022-08-20T07:28:44;19.63;;;4.50;;
31347;SDS011;21711;49.708;18.568;2022-08-20T07:31:12;20.95;;;4.80;;
31347;SDS011;21711;49.708;18.568;2022-08-20T07:34:00;16.17;;;4.80;;
31347;SDS011;21711;49.708;18.568;2022-08-20T07:36:30;14.93;;;4.20;;
31347;SDS011;21711;49.708;18.568;2022-08-20T07:38:58;12.20;;;4.20;;
31347;SDS011;21711;49.708;18.568;2022-08-20T07:41:32;12.65;;;4.65;;
31347;SDS011;21711;49.708;18.568;2022-08-20T07:43:59;16.73;;;4.78;;
31347;SDS011;21711;49.708;18.568;2022-08-20T07:46:27;15.40;;;5.05;;
31347;SDS011;21711;49.708;18.568;2022-08-20T07:48:57;14.48;;;4.20;;
31347;SDS011;21711;49.708;18.568;2022-08-20T07:51:25;12.15;;;4.28;;
31347;SDS011;21711;49.708;18.568;2022-08-20T07:53:52;19.60;;;4.28;;
31347;SDS011;21711;49.708;18.568;2022-08-20T07:56:21;8.20;;;4.10;;
31347;SDS011;21711;49.708;18.568;2022-08-20T07:58:50;20.02;;;4.72;;
31347;SDS011;21711;49.708;18.568;2022-08-20T08:01:25;9.20;;;4.00;;
31347;SDS011;21711;49.708;18.568;2022-08-20T08:03:57;16.75;;;4.03;;
31347;SDS011;21711;49.708;18.568;2022-08-20T08:06:26;14.55;;;4.40;;
31347;SDS011;21711;49.708;18.568;2022-08-20T08:08:58;14.40;;;3.92;;
31347;SDS011;21711;49.708;18.568;2022-08-20T08:11:36;12.65;;;4.43;;
31347;SDS011;21711;49.708;18.568;2022-08-20T08:14:13;13.27;;;3.90;;
31347;SDS011;21711;49.708;18.568;2022-08-20T08:16:49;12.82;;;3.78;;
31347;SDS011;21711;49.708;18.568;2022-08-20T08:21:46;12.27;;;4.78;;
31347;SDS011;21711;49.708;18.568;2022-08-20T08:24:13;15.57;;;4.53;;
31347;SDS011;21711;49.708;18.568;2022-08-20T08:26:47;14.82;;;4.63;;
31347;SDS011;21711;49.708;18.568;2022-08-20T08:29:15;12.75;;;4.03;;
31347;SDS011;21711;49.708;18.568;2022-08-20T08:31:43;14.93;;;4.70;;
31347;SDS011;21711;49.708;18.568;2022-08-20T08:34:11;11.68;;;4.55;;
31347;SDS011;21711;49.708;18.568;2022-08-20T08:36:38;14.65;;;4.57;;
31347;SDS011;21711;49.708;18.568;2022-08-20T08:39:09;13.32;;;4.80;;
31347;SDS011;21711;49.708;18.568;2022-08-20T08:41:41;16.45;;;5.60;;
31347;SDS011;21711;49.708;18.568;2022-08-20T08:44:20;17.88;;;5.45;;
31347;SDS011;21711;49.708;18.568;2022-08-20T08:46:53;15.15;;;4.97;;
31347;SDS011;21711;49.708;18.568;2022-08-20T08:49:27;12.23;;;4.95;;
31347;SDS011;21711;49.708;18.568;2022-08-20T08:54:44;13.45;;;5.40;;
31347;SDS011;21711;49.708;18.568;2022-08-20T08:57:15;16.58;;;5.07;;
31347;SDS011;21711;49.708;18.568;2022-08-20T08:59:44;13.48;;;5.20;;
31347;SDS011;21711;49.708;18.568;2022-08-20T09:02:39;12.63;;;5.63;;
31347;SDS011;21711;49.708;18.568;2022-08-20T09:10:19;17.65;;;6.28;;
31347;SDS011;21711;49.708;18.568;2022-08-20T09:12:48;15.20;;;5.63;;
31347;SDS011;21711;49.708;18.568;2022-08-20T09:15:18;16.80;;;5.88;;
31347;SDS011;21711;49.708;18.568;2022-08-20T09:17:47;19.33;;;6.13;;
31347;SDS011;21711;49.708;18.568;2022-08-20T09:20:14;16.30;;;5.82;;
31347;SDS011;21711;49.708;18.568;2022-08-20T09:22:43;16.87;;;5.70;;
31347;SDS011;21711;49.708;18.568;2022-08-20T09:25:11;13.60;;;5.95;;
31347;SDS011;21711;49.708;18.568;2022-08-20T09:27:38;12.02;;;5.78;;
31347;SDS011;21711;49.708;18.568;2022-08-20T09:30:09;12.93;;;5.60;;
31347;SDS011;21711;49.708;18.568;2022-08-20T09:32:39;18.73;;;6.35;;
31347;SDS011;21711;49.708;18.568;2022-08-20T09:35:07;15.80;;;5.68;;
31347;SDS011;21711;49.708;18.568;2022-08-20T09:37:35;16.42;;;5.70;;
31347;SDS011;21711;49.708;18.568;2022-08-20T09:40:04;14.73;;;5.80;;
31347;SDS011;21711;49.708;18.568;2022-08-20T09:42:35;14.80;;;5.78;;
31347;SDS011;21711;49.708;18.568;2022-08-20T09:45:07;16.85;;;5.53;;
31347;SDS011;21711;49.708;18.568;2022-08-20T09:47:37;10.07;;;5.47;;
31347;SDS011;21711;49.708;18.568;2022-08-20T09:50:21;17.67;;;6.03;;
31347;SDS011;21711;49.708;18.568;2022-08-20T09:52:49;21.63;;;6.45;;
31347;SDS011;21711;49.708;18.568;2022-08-20T09:55:21;11.18;;;5.93;;
31347;SDS011;21711;49.708;18.568;2022-08-20T09:57:56;15.63;;;5.75;;
31347;SDS011;21711;49.708;18.568;2022-08-20T10:00:24;15.52;;;5.82;;
31347;SDS011;21711;49.708;18.568;2022-08-20T10:02:52;12.70;;;5.43;;
31347;SDS011;21711;49.708;18.568;2022-08-20T10:05:19;15.98;;;5.72;;
31347;SDS011;21711;49.708;18.568;2022-08-20T10:07:48;16.23;;;6.95;;
31347;SDS011;21711;49.708;18.568;2022-08-20T10:10:15;17.17;;;6.75;;
31347;SDS011;21711;49.708;18.568;2022-08-20T10:12:42;15.30;;;5.97;;
31347;SDS011;21711;49.708;18.568;2022-08-20T10:15:11;16.52;;;6.68;;
31347;SDS011;21711;49.708;18.568;2022-08-20T10:17:39;15.57;;;5.78;;
31347;SDS011;21711;49.708;18.568;2022-08-20T10:20:09;14.43;;;5.85;;
31347;SDS011;21711;49.708;18.568;2022-08-20T10:22:40;22.15;;;7.63;;
31347;SDS011;21711;49.708;18.568;2022-08-20T10:25:08;17.33;;;5.70;;
31347;SDS011;21711;49.708;18.568;2022-08-20T10:27:38;15.57;;;5.80;;
31347;SDS011;21711;49.708;18.568;2022-08-20T10:30:06;21.73;;;6.63;;
31347;SDS011;21711;49.708;18.568;2022-08-20T10:32:34;14.38;;;5.63;;
31347;SDS011;21711;49.708;18.568;2022-08-20T10:35:02;15.90;;;5.63;;
31347;SDS011;21711;49.708;18.568;2022-08-20T10:37:30;15.77;;;5.25;;
31347;SDS011;21711;49.708;18.568;2022-08-20T10:39:57;17.17;;;5.63;;
31347;SDS011;21711;49.708;18.568;2022-08-20T10:42:24;18.95;;;7.28;;
31347;SDS011;21711;49.708;18.568;2022-08-20T10:44:52;14.32;;;6.22;;
31347;SDS011;21711;49.708;18.568;2022-08-20T10:47:21;17.42;;;6.43;;
31347;SDS011;21711;49.708;18.568;2022-08-20T10:49:55;22.90;;;7.97;;
31347;SDS011;21711;49.708;18.568;2022-08-20T10:52:25;17.67;;;5.28;;
31347;SDS011;21711;49.708;18.568;2022-08-20T10:54:54;22.05;;;5.80;;
31347;SDS011;21711;49.708;18.568;2022-08-20T10:57:23;19.23;;;5.88;;
31347;SDS011;21711;49.708;18.568;2022-08-20T10:59:54;20.65;;;5.72;;
31347;SDS011;21711;49.708;18.568;2022-08-20T11:02:23;19.95;;;5.35;;
31347;SDS011;21711;49.708;18.568;2022-08-20T11:04:52;25.23;;;5.95;;
31347;SDS011;21711;49.708;18.568;2022-08-20T11:07:26;16.83;;;5.68;;
31347;SDS011;21711;49.708;18.568;2022-08-20T11:10:19;15.88;;;5.70;;
31347;SDS011;21711;49.708;18.568;2022-08-20T11:12:47;18.63;;;5.35;;
31347;SDS011;21711;49.708;18.568;2022-08-20T11:15:15;16.23;;;5.40;;
31347;SDS011;21711;49.708;18.568;2022-08-20T11:17:43;16.60;;;4.93;;
31347;SDS011;21711;49.708;18.568;2022-08-20T11:20:11;15.25;;;6.00;;
31347;SDS011;21711;49.708;18.568;2022-08-20T11:22:42;14.23;;;5.55;;
31347;SDS011;21711;49.708;18.568;2022-08-20T11:25:09;13.95;;;5.53;;
31347;SDS011;21711;49.708;18.568;2022-08-20T11:27:38;14.75;;;6.65;;
31347;SDS011;21711;49.708;18.568;2022-08-20T11:30:12;13.70;;;6.20;;
31347;SDS011;21711;49.708;18.568;2022-08-20T11:32:45;17.45;;;6.93;;
31347;SDS011;21711;49.708;18.568;2022-08-20T11:35:12;16.45;;;6.63;;
31347;SDS011;21711;49.708;18.568;2022-08-20T11:37:59;16.92;;;6.95;;
31347;SDS011;21711;49.708;18.568;2022-08-20T11:40:28;14.32;;;6.47;;
31347;SDS011;21711;49.708;18.568;2022-08-20T11:42:57;15.40;;;6.05;;
31347;SDS011;21711;49.708;18.568;2022-08-20T11:45:40;13.68;;;6.30;;
31347;SDS011;21711;49.708;18.568;2022-08-20T11:48:09;18.70;;;6.80;;
31347;SDS011;21711;49.708;18.568;2022-08-20T11:50:37;19.58;;;7.28;;
31347;SDS011;21711;49.708;18.568;2022-08-20T11:53:04;16.17;;;7.03;;
31347;SDS011;21711;49.708;18.568;2022-08-20T11:55:33;14.50;;;7.15;;
31347;SDS011;21711;49.708;18.568;2022-08-20T11:58:02;19.10;;;7.47;;
31347;SDS011;21711;49.708;18.568;2022-08-20T12:00:30;19.83;;;7.32;;
31347;SDS011;21711;49.708;18.568;2022-08-20T12:03:00;22.38;;;7.90;;
31347;SDS011;21711;49.708;18.568;2022-08-20T12:05:30;17.42;;;8.23;;
31347;SDS011;21711;49.708;18.568;2022-08-20T12:08:01;19.27;;;8.85;;
31347;SDS011;21711;49.708;18.568;2022-08-20T12:10:29;22.58;;;7.40;;
31347;SDS011;21711;49.708;18.568;2022-08-20T12:12:57;24.40;;;7.63;;
31347;SDS011;21711;49.708;18.568;2022-08-20T12:15:25;17.95;;;7.00;;
31347;SDS011;21711;49.708;18.568;2022-08-20T12:17:53;17.00;;;6.28;;
31347;SDS011;21711;49.708;18.568;2022-08-20T12:20:21;19.10;;;7.45;;
31347;SDS011;21711;49.708;18.568;2022-08-20T12:22:49;17.23;;;6.90;;
31347;SDS011;21711;49.708;18.568;2022-08-20T12:25:18;18.17;;;7.15;;
31347;SDS011;21711;49.708;18.568;2022-08-20T12:27:46;21.00;;;7.10;;
31347;SDS011;21711;49.708;18.568;2022-08-20T12:30:14;19.10;;;7.00;;
31347;SDS011;21711;49.708;18.568;2022-08-20T12:32:45;20.48;;;8.07;;
31347;SDS011;21711;49.708;18.568;2022-08-20T12:35:14;13.98;;;7.15;;
31347;SDS011;21711;49.708;18.568;2022-08-20T12:37:44;20.15;;;7.80;;
31347;SDS011;21711;49.708;18.568;2022-08-20T12:40:14;20.23;;;7.88;;
31347;SDS011;21711;49.708;18.568;2022-08-20T12:42:58;16.65;;;7.18;;
31347;SDS011;21711;49.708;18.568;2022-08-20T12:45:27;17.75;;;7.47;;
31347;SDS011;21711;49.708;18.568;2022-08-20T12:48:00;13.77;;;7.05;;
31347;SDS011;21711;49.708;18.568;2022-08-20T12:50:32;15.40;;;7.60;;
31347;SDS011;21711;49.708;18.568;2022-08-20T12:53:01;21.75;;;7.97;;
31347;SDS011;21711;49.708;18.568;2022-08-20T12:55:30;20.60;;;7.75;;
31347;SDS011;21711;49.708;18.568;2022-08-20T12:57:59;18.85;;;9.75;;
31347;SDS011;21711;49.708;18.568;2022-08-20T13:00:30;15.88;;;7.10;;
31347;SDS011;21711;49.708;18.568;2022-08-20T13:03:08;21.95;;;7.78;;
31347;SDS011;21711;49.708;18.568;2022-08-20T13:05:38;11.38;;;7.97;;
31347;SDS011;21711;49.708;18.568;2022-08-20T13:08:07;16.60;;;8.27;;
31347;SDS011;21711;49.708;18.568;2022-08-20T13:10:38;14.20;;;7.85;;
31347;SDS011;21711;49.708;18.568;2022-08-20T13:13:10;15.70;;;7.28;;
31347;SDS011;21711;49.708;18.568;2022-08-20T13:15:42;19.60;;;8.68;;
31347;SDS011;21711;49.708;18.568;2022-08-20T13:18:10;18.60;;;8.32;;
31347;SDS011;21711;49.708;18.568;2022-08-20T13:20:37;21.27;;;9.18;;
31347;SDS011;21711;49.708;18.568;2022-08-20T13:23:05;20.27;;;8.73;;
31347;SDS011;21711;49.708;18.568;2022-08-20T13:25:32;19.05;;;8.13;;
31347;SDS011;21711;49.708;18.568;2022-08-20T13:28:00;15.43;;;8.38;;
31347;SDS011;21711;49.708;18.568;2022-08-20T13:33:00;18.42;;;8.55;;
31347;SDS011;21711;49.708;18.568;2022-08-20T13:35:28;19.00;;;8.45;;
31347;SDS011;21711;49.708;18.568;2022-08-20T13:37:56;16.88;;;8.82;;
31347;SDS011;21711;49.708;18.568;2022-08-20T13:40:23;20.10;;;9.00;;
31347;SDS011;21711;49.708;18.568;2022-08-20T13:42:51;19.98;;;7.88;;
31347;SDS011;21711;49.708;18.568;2022-08-20T13:45:19;16.48;;;7.53;;
31347;SDS011;21711;49.708;18.568;2022-08-20T13:47:49;15.63;;;7.13;;
31347;SDS011;21711;49.708;18.568;2022-08-20T13:50:20;17.38;;;7.00;;
31347;SDS011;21711;49.708;18.568;2022-08-20T13:52:50;15.73;;;7.60;;
31347;SDS011;21711;49.708;18.568;2022-08-20T13:55:18;13.50;;;7.40;;
31347;SDS011;21711;49.708;18.568;2022-08-20T13:57:48;17.05;;;8.35;;
31347;SDS011;21711;49.708;18.568;2022-08-20T14:00:18;15.02;;;6.60;;
31347;SDS011;21711;49.708;18.568;2022-08-20T14:03:00;21.90;;;7.30;;
31347;SDS011;21711;49.708;18.568;2022-08-20T14:05:30;20.50;;;7.03;;
31347;SDS011;21711;49.708;18.568;2022-08-20T14:08:07;12.13;;;6.10;;
31347;SDS011;21711;49.708;18.568;2022-08-20T14:10:44;16.38;;;6.05;;
31347;SDS011;21711;49.708;18.568;2022-08-20T14:13:18;14.30;;;7.22;;
31347;SDS011;21711;49.708;18.568;2022-08-20T14:15:48;19.67;;;7.78;;
31347;SDS011;21711;49.708;18.568;2022-08-20T14:18:16;16.48;;;8.00;;
31347;SDS011;21711;49.708;18.568;2022-08-20T14:20:44;20.98;;;8.48;;
31347;SDS011;21711;49.708;18.568;2022-08-20T14:23:13;19.92;;;9.13;;
31347;SDS011;21711;49.708;18.568;2022-08-20T14:25:43;16.88;;;7.82;;
31347;SDS011;21711;49.708;18.568;2022-08-20T14:28:17;18.50;;;7.97;;
31347;SDS011;21711;49.708;18.568;2022-08-20T14:30:49;20.83;;;7.32;;
31347;SDS011;21711;49.708;18.568;2022-08-20T14:33:19;12.90;;;6.88;;
31347;SDS011;21711;49.708;18.568;2022-08-20T14:35:48;18.67;;;8.75;;
31347;SDS011;21711;49.708;18.568;2022-08-20T14:38:16;16.15;;;7.15;;
31347;SDS011;21711;49.708;18.568;2022-08-20T14:40:44;15.50;;;8.52;;
31347;SDS011;21711;49.708;18.568;2022-08-20T14:43:12;13.65;;;7.70;;
31347;SDS011;21711;49.708;18.568;2022-08-20T14:45:39;16.40;;;7.60;;
31347;SDS011;21711;49.708;18.568;2022-08-20T14:48:06;15.50;;;7.93;;
31347;SDS011;21711;49.708;18.568;2022-08-20T14:50:35;17.77;;;9.57;;
31347;SDS011;21711;49.708;18.568;2022-08-20T14:53:03;16.25;;;8.77;;
31347;SDS011;21711;49.708;18.568;2022-08-20T14:55:33;18.20;;;7.90;;
31347;SDS011;21711;49.708;18.568;2022-08-20T14:58:09;16.60;;;8.38;;
31347;SDS011;21711;49.708;18.568;2022-08-20T15:00:40;19.73;;;8.65;;
31347;SDS011;21711;49.708;18.568;2022-08-20T15:03:08;17.98;;;8.30;;
31347;SDS011;21711;49.708;18.568;2022-08-20T15:05:36;14.23;;;8.32;;